Time;durP1;ratioP1;P1;durP2;ratioP2;P2;SDS_P1;SDS_P2;PMS_P1;PMS_P2;Temp;Humidity;BMP_temperature;BMP_pressure;BME280_temperature;BME280_humidity;BME280_pressure;Samples;Min_cycle;Max_cycle;Signal;HPM_P1;HPM_P2
2023/02/26 00:01:28;;;;;;;3.72;2.38;;;;;;;;;;5010454;28;20046;-87
2023/02/26 00:04:02;;;;;;;4.25;1.73;;;;;;;;;;5011008;28;20046;-86
2023/02/26 00:06:33;;;;;;;3.30;2.65;;;;;;;;;;4990297;28;20531;-86
2023/02/26 00:09:00;;;;;;;5.93;2.42;;;;;;;;;;5007375;28;20046;-86
2023/02/26 00:11:30;;;;;;;6.10;2.92;;;;;;;;;;4990421;28;20054;-86
2023/02/26 00:14:00;;;;;;;4.28;2.28;;;;;;;;;;5009378;28;20688;-86
2023/02/26 00:16:29;;;;;;;3.50;2.53;;;;;;;;;;5007498;28;20053;-86
2023/02/26 00:18:56;;;;;;;2.47;2.28;;;;;;;;;;5007988;28;20060;-86
2023/02/26 00:21:29;;;;;;;3.90;2.80;;;;;;;;;;4989862;28;20050;-86
2023/02/26 00:23:57;;;;;;;8.15;4.38;;;;;;;;;;5010386;28;20049;-86
2023/02/26 00:26:26;;;;;;;4.20;3.78;;;;;;;;;;4979387;28;20046;-86
2023/02/26 00:28:54;;;;;;;3.92;2.28;;;;;;;;;;5009481;28;20050;-86
2023/02/26 00:31:23;;;;;;;3.40;2.72;;;;;;;;;;5009086;28;20033;-86
2023/02/26 00:33:55;;;;;;;4.38;3.42;;;;;;;;;;4970292;28;20780;-87
2023/02/26 00:36:24;;;;;;;3.22;2.33;;;;;;;;;;4977691;28;20492;-86
2023/02/26 00:39:05;;;;;;;16.75;3.35;;;;;;;;;;4990594;28;20049;-87
2023/02/26 00:41:35;;;;;;;2.75;2.00;;;;;;;;;;4991914;28;20034;-87
2023/02/26 00:44:02;;;;;;;3.38;2.25;;;;;;;;;;5010109;28;20130;-87
2023/02/26 00:46:41;;;;;;;2.22;1.52;;;;;;;;;;4977144;28;20046;-87
2023/02/26 00:49:18;;;;;;;7.45;2.75;;;;;;;;;;4990536;28;20065;-88
2023/02/26 00:51:49;;;;;;;5.60;3.65;;;;;;;;;;4970389;28;20046;-88
2023/02/26 00:54:20;;;;;;;3.60;2.50;;;;;;;;;;4981040;28;20564;-88
2023/02/26 00:56:48;;;;;;;3.60;3.30;;;;;;;;;;4974571;28;20571;-87
2023/02/26 00:59:15;;;;;;;3.20;2.35;;;;;;;;;;4971554;28;20417;-87
2023/02/26 01:01:43;;;;;;;2.05;1.85;;;;;;;;;;4990745;28;20069;-87
2023/02/26 01:04:14;;;;;;;4.40;2.63;;;;;;;;;;4986782;28;20049;-87
2023/02/26 01:06:44;;;;;;;4.78;2.30;;;;;;;;;;4975234;28;20073;-87
2023/02/26 01:09:20;;;;;;;4.20;2.40;;;;;;;;;;4986384;28;20066;-87
2023/02/26 01:11:48;;;;;;;4.15;1.70;;;;;;;;;;4991059;28;20125;-88
2023/02/26 01:14:15;;;;;;;4.75;2.55;;;;;;;;;;4991926;28;20411;-87
2023/02/26 01:16:50;;;;;;;3.25;2.42;;;;;;;;;;4989515;28;20046;-87
2023/02/26 01:19:24;;;;;;;2.67;2.13;;;;;;;;;;5010321;28;20065;-87
2023/02/26 01:21:56;;;;;;;4.47;2.20;;;;;;;;;;5007597;28;20486;-87
2023/02/26 01:24:25;;;;;;;4.45;2.30;;;;;;;;;;4992130;28;20060;-87
2023/02/26 01:26:55;;;;;;;7.60;2.53;;;;;;;;;;4976083;28;20046;-86
2023/02/26 01:29:23;;;;;;;3.25;2.78;;;;;;;;;;4977229;28;20054;-86
2023/02/26 01:31:54;;;;;;;3.90;2.20;;;;;;;;;;4990815;28;20049;-85
2023/02/26 01:34:26;;;;;;;2.80;1.98;;;;;;;;;;4976907;28;20061;-85
2023/02/26 01:36:58;;;;;;;2.28;1.85;;;;;;;;;;4991001;28;20038;-86
2023/02/26 01:39:30;;;;;;;4.22;2.15;;;;;;;;;;5001182;28;20054;-86
2023/02/26 01:42:01;;;;;;;2.30;2.10;;;;;;;;;;5005176;28;20058;-85
2023/02/26 01:44:32;;;;;;;3.70;2.92;;;;;;;;;;4993471;28;20049;-86
2023/02/26 01:47:07;;;;;;;3.65;2.33;;;;;;;;;;4985050;28;20050;-86
2023/02/26 01:49:35;;;;;;;5.57;2.80;;;;;;;;;;4992604;28;20041;-86
2023/02/26 01:52:05;;;;;;;4.88;3.03;;;;;;;;;;4989935;28;20064;-86
2023/02/26 01:54:38;;;;;;;3.95;2.38;;;;;;;;;;5006780;28;20042;-86
2023/02/26 01:57:11;;;;;;;4.47;2.75;;;;;;;;;;5005792;28;20046;-87
2023/02/26 01:59:42;;;;;;;2.78;2.35;;;;;;;;;;5007765;28;20050;-85
2023/02/26 02:02:11;;;;;;;4.70;1.90;;;;;;;;;;4988089;28;20057;-86
2023/02/26 02:04:40;;;;;;;3.08;2.42;;;;;;;;;;4973751;28;20057;-86
2023/02/26 02:07:08;;;;;;;3.40;2.47;;;;;;;;;;4987750;28;20065;-88
2023/02/26 02:09:39;;;;;;;2.80;2.45;;;;;;;;;;4974523;28;20041;-87
2023/02/26 02:12:21;;;;;;;2.30;2.10;;;;;;;;;;4969979;28;20054;-86
2023/02/26 02:14:56;;;;;;;2.97;2.55;;;;;;;;;;4991648;28;20058;-86
2023/02/26 02:17:29;;;;;;;3.90;2.40;;;;;;;;;;4986101;28;20054;-87
2023/02/26 02:20:43;;;;;;;2.88;2.28;;;;;;;;;;4990672;28;20050;-86
2023/02/26 02:23:12;;;;;;;3.38;2.00;;;;;;;;;;4917620;28;20049;-86
2023/02/26 02:26:09;;;;;;;4.63;3.35;;;;;;;;;;4991257;28;20068;-85
2023/02/26 02:28:48;;;;;;;5.45;2.95;;;;;;;;;;4988611;28;20061;-85
2023/02/26 02:31:19;;;;;;;1.92;1.75;;;;;;;;;;5001235;28;20413;-85
2023/02/26 02:33:49;;;;;;;3.22;2.92;;;;;;;;;;4971528;28;20531;-86
2023/02/26 02:36:20;;;;;;;2.63;2.40;;;;;;;;;;4987830;28;20046;-86
2023/02/26 02:38:52;;;;;;;7.05;2.35;;;;;;;;;;4973994;28;20046;-86
2023/02/26 02:41:25;;;;;;;4.03;3.17;;;;;;;;;;4971001;28;20634;-86
2023/02/26 02:43:52;;;;;;;5.32;2.45;;;;;;;;;;5003393;28;20050;-86
2023/02/26 02:46:25;;;;;;;4.03;2.72;;;;;;;;;;4975513;28;20062;-86
2023/02/26 02:48:59;;;;;;;3.78;2.95;;;;;;;;;;4989976;28;20065;-85
2023/02/26 02:51:29;;;;;;;3.95;2.65;;;;;;;;;;5008659;28;20065;-86
2023/02/26 02:54:00;;;;;;;3.15;2.58;;;;;;;;;;4985089;28;20053;-86
2023/02/26 02:56:32;;;;;;;5.87;3.37;;;;;;;;;;4988585;28;20065;-86
2023/02/26 02:59:06;;;;;;;3.88;3.08;;;;;;;;;;5005219;28;20038;-86
2023/02/26 03:01:36;;;;;;;3.00;2.58;;;;;;;;;;4972439;28;20057;-85
2023/02/26 03:04:07;;;;;;;4.22;3.28;;;;;;;;;;4973557;28;20042;-85
2023/02/26 03:06:34;;;;;;;6.00;2.67;;;;;;;;;;4989553;28;20054;-85
2023/02/26 03:09:03;;;;;;;11.30;2.88;;;;;;;;;;4971670;28;20048;-85
2023/02/26 03:11:33;;;;;;;8.20;3.45;;;;;;;;;;5010637;28;20421;-85
2023/02/26 03:14:01;;;;;;;4.72;3.05;;;;;;;;;;4989883;28;20046;-84
2023/02/26 03:16:44;;;;;;;8.88;3.10;;;;;;;;;;4993490;28;20063;-85
2023/02/26 03:19:20;;;;;;;5.10;3.42;;;;;;;;;;4994472;28;20037;-85
2023/02/26 03:21:50;;;;;;;3.45;2.70;;;;;;;;;;4996043;28;20419;-84
2023/02/26 03:24:32;;;;;;;5.05;3.35;;;;;;;;;;4995958;28;20057;-84
2023/02/26 03:27:01;;;;;;;4.32;3.35;;;;;;;;;;4990852;28;20045;-85
2023/02/26 03:29:34;;;;;;;5.10;2.97;;;;;;;;;;4989595;28;20068;-84
2023/02/26 03:32:06;;;;;;;6.28;3.65;;;;;;;;;;4992744;28;20072;-84
2023/02/26 03:34:39;;;;;;;5.93;2.65;;;;;;;;;;4994679;28;20054;-84
2023/02/26 03:37:16;;;;;;;3.75;3.17;;;;;;;;;;4988143;28;20049;-84
2023/02/26 03:39:48;;;;;;;3.42;2.83;;;;;;;;;;4977810;28;20060;-85
2023/02/26 03:42:20;;;;;;;6.47;3.17;;;;;;;;;;4977974;28;20050;-84
2023/02/26 03:45:00;;;;;;;3.60;3.08;;;;;;;;;;4993499;28;20061;-84
2023/02/26 03:47:32;;;;;;;3.35;2.58;;;;;;;;;;4989983;28;20057;-84
2023/02/26 03:50:06;;;;;;;5.63;2.77;;;;;;;;;;4989451;28;20042;-84
2023/02/26 03:52:44;;;;;;;3.90;2.70;;;;;;;;;;4990611;28;20419;-84
2023/02/26 03:55:44;;;;;;;3.50;3.20;;;;;;;;;;5008223;28;20050;-84
2023/02/26 03:58:32;;;;;;;6.15;3.25;;;;;;;;;;4975918;28;20057;-84
2023/02/26 04:01:20;;;;;;;4.22;2.72;;;;;;;;;;4986727;28;20077;-84
2023/02/26 04:03:52;;;;;;;5.68;2.80;;;;;;;;;;4991912;28;20082;-84
2023/02/26 04:06:22;;;;;;;3.67;3.30;;;;;;;;;;4976939;28;20054;-84
2023/02/26 04:08:52;;;;;;;6.13;3.20;;;;;;;;;;4975109;28;20047;-84
2023/02/26 04:11:21;;;;;;;6.65;3.63;;;;;;;;;;4974271;28;20050;-84
2023/02/26 04:13:51;;;;;;;6.60;3.20;;;;;;;;;;5007094;28;20050;-85
2023/02/26 04:16:20;;;;;;;4.10;3.05;;;;;;;;;;4994714;28;20048;-85
2023/02/26 04:18:52;;;;;;;7.03;3.55;;;;;;;;;;4976682;28;20049;-84
2023/02/26 04:21:22;;;;;;;3.75;3.15;;;;;;;;;;4973088;28;20080;-85
2023/02/26 04:23:51;;;;;;;4.47;3.08;;;;;;;;;;4976566;28;20065;-84
2023/02/26 04:26:19;;;;;;;5.53;3.67;;;;;;;;;;4978777;28;20084;-85
2023/02/26 04:28:46;;;;;;;6.65;2.92;;;;;;;;;;4991861;28;20050;-85
2023/02/26 04:31:19;;;;;;;3.95;3.22;;;;;;;;;;4992499;28;20050;-85
2023/02/26 04:33:46;;;;;;;5.15;3.15;;;;;;;;;;4988968;28;20045;-84
2023/02/26 04:36:15;;;;;;;4.40;2.85;;;;;;;;;;4994145;28;20088;-84
2023/02/26 04:38:42;;;;;;;3.20;2.88;;;;;;;;;;4991747;28;20424;-84
2023/02/26 04:41:12;;;;;;;3.88;2.92;;;;;;;;;;4993126;28;20045;-84
2023/02/26 04:43:39;;;;;;;3.70;2.78;;;;;;;;;;4969599;28;20281;-84
2023/02/26 04:46:33;;;;;;;8.23;2.67;;;;;;;;;;5006801;28;20061;-84
2023/02/26 04:49:03;;;;;;;3.80;2.30;;;;;;;;;;4973060;28;20057;-84
2023/02/26 04:51:32;;;;;;;6.05;2.35;;;;;;;;;;4988888;28;20058;-84
2023/02/26 04:53:59;;;;;;;3.88;2.72;;;;;;;;;;4985841;28;20041;-84
2023/02/26 04:56:27;;;;;;;2.88;2.55;;;;;;;;;;4975529;28;20052;-84
2023/02/26 04:58:57;;;;;;;5.90;3.03;;;;;;;;;;4992756;28;20415;-84
2023/02/26 05:01:28;;;;;;;8.20;3.28;;;;;;;;;;4987363;28;20061;-85
2023/02/26 05:03:56;;;;;;;5.30;3.92;;;;;;;;;;4990784;28;20046;-84
2023/02/26 05:06:25;;;;;;;5.88;2.88;;;;;;;;;;4991288;28;20050;-84
2023/02/26 05:08:56;;;;;;;4.85;2.70;;;;;;;;;;4992488;28;20049;-84
2023/02/26 05:11:23;;;;;;;3.70;2.67;;;;;;;;;;4988891;28;20046;-84
2023/02/26 05:13:56;;;;;;;4.32;2.75;;;;;;;;;;4976737;28;20065;-84
2023/02/26 05:16:23;;;;;;;4.25;3.10;;;;;;;;;;4993432;28;20046;-83
2023/02/26 05:18:51;;;;;;;3.55;2.45;;;;;;;;;;4975756;28;20053;-83
2023/02/26 05:21:20;;;;;;;4.47;2.10;;;;;;;;;;4973885;28;22891;-83
2023/02/26 05:23:50;;;;;;;6.50;2.88;;;;;;;;;;4975849;28;20053;-83
2023/02/26 05:26:19;;;;;;;3.85;2.72;;;;;;;;;;4987778;28;20050;-83
2023/02/26 05:28:46;;;;;;;4.32;3.50;;;;;;;;;;5006572;28;20046;-83
2023/02/26 05:31:16;;;;;;;7.78;3.85;;;;;;;;;;4974529;28;20049;-83
2023/02/26 05:33:43;;;;;;;3.25;2.67;;;;;;;;;;4991340;28;20408;-83
2023/02/26 05:36:13;;;;;;;7.72;3.78;;;;;;;;;;4978635;28;20049;-83
2023/02/26 05:38:40;;;;;;;6.82;3.72;;;;;;;;;;4974863;28;20054;-83
2023/02/26 05:41:12;;;;;;;3.90;3.05;;;;;;;;;;5004371;28;20046;-83
2023/02/26 05:43:43;;;;;;;6.43;3.65;;;;;;;;;;4975263;28;20077;-82
2023/02/26 05:46:10;;;;;;;4.90;2.33;;;;;;;;;;5011187;28;20500;-83
2023/02/26 05:48:37;;;;;;;8.77;2.72;;;;;;;;;;4991760;28;20436;-83
2023/02/26 05:51:05;;;;;;;5.13;2.75;;;;;;;;;;4990106;28;20053;-83
2023/02/26 05:53:34;;;;;;;4.38;3.90;;;;;;;;;;4974145;28;20088;-83
2023/02/26 05:56:02;;;;;;;5.72;2.65;;;;;;;;;;5005490;28;20058;-84
2023/02/26 05:58:30;;;;;;;5.55;2.55;;;;;;;;;;4969248;28;20053;-84
2023/02/26 06:00:59;;;;;;;3.25;2.45;;;;;;;;;;4992764;28;20392;-83
2023/02/26 06:03:27;;;;;;;5.25;2.83;;;;;;;;;;4970455;28;20538;-83
2023/02/26 06:05:54;;;;;;;4.78;2.85;;;;;;;;;;5008846;28;20054;-83
2023/02/26 06:08:21;;;;;;;5.13;2.80;;;;;;;;;;4989981;28;20061;-83
2023/02/26 06:10:51;;;;;;;3.53;3.10;;;;;;;;;;4988376;28;20057;-83
2023/02/26 06:13:18;;;;;;;4.45;2.25;;;;;;;;;;4988442;28;20061;-83
2023/02/26 06:15:51;;;;;;;3.72;3.10;;;;;;;;;;5009987;28;20042;-84
2023/02/26 06:18:19;;;;;;;10.63;3.03;;;;;;;;;;4989793;28;20049;-84
2023/02/26 06:20:46;;;;;;;4.00;3.33;;;;;;;;;;4972972;28;20061;-84
2023/02/26 06:23:14;;;;;;;6.47;4.00;;;;;;;;;;5009042;28;20065;-84
2023/02/26 06:25:41;;;;;;;7.60;4.78;;;;;;;;;;4990859;28;20057;-84
2023/02/26 06:28:11;;;;;;;5.15;3.80;;;;;;;;;;4973773;28;20061;-83
2023/02/26 06:30:38;;;;;;;9.23;4.25;;;;;;;;;;5004924;28;20042;-83
2023/02/26 06:33:05;;;;;;;9.10;4.53;;;;;;;;;;4974445;28;20057;-83
2023/02/26 06:35:34;;;;;;;6.07;5.03;;;;;;;;;;4992392;28;20053;-83
2023/02/26 06:38:04;;;;;;;10.48;5.07;;;;;;;;;;4991219;28;20060;-83
2023/02/26 06:40:31;;;;;;;4.57;3.97;;;;;;;;;;4975587;28;20045;-83
2023/02/26 06:42:58;;;;;;;4.68;3.70;;;;;;;;;;5006036;28;20518;-83
2023/02/26 06:45:25;;;;;;;5.45;3.22;;;;;;;;;;4993753;28;20534;-83
2023/02/26 06:47:53;;;;;;;4.80;2.92;;;;;;;;;;4994641;28;20068;-83
2023/02/26 06:50:21;;;;;;;4.57;2.72;;;;;;;;;;4973417;28;20054;-84
2023/02/26 06:52:51;;;;;;;8.55;3.15;;;;;;;;;;4989817;28;20045;-84
2023/02/26 06:55:25;;;;;;;10.55;2.63;;;;;;;;;;5011147;28;20053;-84
2023/02/26 06:57:55;;;;;;;3.63;2.70;;;;;;;;;;5008071;28;20065;-84
2023/02/26 07:00:25;;;;;;;3.58;2.70;;;;;;;;;;5009535;28;20054;-84
2023/02/26 07:02:53;;;;;;;4.22;2.80;;;;;;;;;;5010610;28;20053;-84
2023/02/26 07:05:22;;;;;;;6.60;2.83;;;;;;;;;;4978044;28;20060;-84
2023/02/26 07:07:49;;;;;;;4.22;2.80;;;;;;;;;;4995242;28;20054;-84
2023/02/26 07:10:20;;;;;;;4.47;2.22;;;;;;;;;;5010690;28;20113;-85
2023/02/26 07:12:49;;;;;;;4.97;3.17;;;;;;;;;;5007704;28;20057;-84
2023/02/26 07:15:17;;;;;;;5.82;2.35;;;;;;;;;;5013594;28;20064;-84
2023/02/26 07:17:44;;;;;;;6.80;3.08;;;;;;;;;;5011933;28;20058;-84
2023/02/26 07:20:14;;;;;;;2.88;1.88;;;;;;;;;;5007239;28;20061;-84
2023/02/26 07:22:44;;;;;;;4.13;3.15;;;;;;;;;;5010839;28;20046;-85
2023/02/26 07:25:12;;;;;;;4.20;3.22;;;;;;;;;;5013077;28;20097;-85
2023/02/26 07:27:43;;;;;;;4.20;3.00;;;;;;;;;;5012455;28;20061;-85
2023/02/26 07:30:14;;;;;;;8.48;2.63;;;;;;;;;;5011746;28;20496;-84
2023/02/26 07:32:43;;;;;;;2.28;1.85;;;;;;;;;;5003476;28;20062;-84
2023/02/26 07:35:11;;;;;;;2.88;1.73;;;;;;;;;;5000556;28;20046;-84
2023/02/26 07:37:38;;;;;;;3.00;2.15;;;;;;;;;;5008051;28;20057;-84
2023/02/26 07:40:07;;;;;;;4.15;2.15;;;;;;;;;;5007222;28;20053;-85
2023/02/26 07:42:34;;;;;;;3.78;2.17;;;;;;;;;;5005132;28;20267;-85
2023/02/26 07:45:03;;;;;;;3.97;2.17;;;;;;;;;;5012167;28;20050;-85
2023/02/26 07:47:30;;;;;;;4.53;2.75;;;;;;;;;;4990605;28;20052;-86
2023/02/26 07:50:00;;;;;;;5.03;1.60;;;;;;;;;;4975715;28;20054;-86
2023/02/26 07:52:30;;;;;;;3.58;2.63;;;;;;;;;;4991844;28;20503;-86
2023/02/26 07:54:57;;;;;;;2.97;2.78;;;;;;;;;;5010431;28;20057;-86
2023/02/26 07:57:24;;;;;;;3.58;2.75;;;;;;;;;;4975565;28;20065;-86
2023/02/26 07:59:51;;;;;;;4.00;3.00;;;;;;;;;;5005349;28;20041;-87
2023/02/26 08:02:22;;;;;;;2.80;2.13;;;;;;;;;;5007264;28;20057;-86
2023/02/26 08:04:51;;;;;;;2.72;1.73;;;;;;;;;;5010118;28;20068;-87
2023/02/26 08:07:19;;;;;;;5.55;1.88;;;;;;;;;;5006592;28;20140;-88
2023/02/26 08:09:46;;;;;;;3.83;2.13;;;;;;;;;;5009423;28;20407;-86
2023/02/26 08:12:13;;;;;;;5.68;2.75;;;;;;;;;;4988518;28;20058;-87
2023/02/26 08:14:40;;;;;;;3.65;2.03;;;;;;;;;;4993663;28;20054;-87
2023/02/26 08:17:08;;;;;;;4.47;2.67;;;;;;;;;;5006891;28;20420;-87
2023/02/26 08:19:37;;;;;;;5.32;2.70;;;;;;;;;;4992990;28;20048;-88
2023/02/26 08:22:04;;;;;;;2.95;2.55;;;;;;;;;;5007147;28;20050;-87
2023/02/26 08:24:31;;;;;;;7.43;2.85;;;;;;;;;;4993343;28;20500;-87
2023/02/26 08:26:58;;;;;;;4.00;2.20;;;;;;;;;;5005494;28;20148;-86
2023/02/26 08:29:25;;;;;;;2.90;1.75;;;;;;;;;;5008796;28;20042;-86
2023/02/26 08:31:55;;;;;;;2.47;2.28;;;;;;;;;;4972370;28;20254;-86
2023/02/26 08:34:22;;;;;;;6.05;2.72;;;;;;;;;;4973950;28;20423;-86
2023/02/26 08:36:53;;;;;;;3.97;2.47;;;;;;;;;;5003334;28;20060;-86
2023/02/26 08:39:20;;;;;;;5.30;2.03;;;;;;;;;;4977338;28;20054;-86
2023/02/26 08:41:48;;;;;;;3.13;2.42;;;;;;;;;;5008690;28;20053;-87
2023/02/26 08:44:15;;;;;;;4.63;2.03;;;;;;;;;;4993205;28;20042;-86
2023/02/26 08:46:47;;;;;;;2.75;1.95;;;;;;;;;;5008614;28;20061;-86
2023/02/26 08:49:14;;;;;;;3.80;1.50;;;;;;;;;;5009090;28;20054;-86
2023/02/26 08:51:42;;;;;;;3.83;1.90;;;;;;;;;;4979500;28;20050;-87
2023/02/26 08:54:13;;;;;;;3.25;2.25;;;;;;;;;;4984361;28;20492;-87
2023/02/26 08:56:40;;;;;;;1.92;1.60;;;;;;;;;;4970648;28;20046;-86
2023/02/26 08:59:08;;;;;;;3.53;2.38;;;;;;;;;;5007842;28;20057;-86
2023/02/26 09:01:36;;;;;;;3.67;1.77;;;;;;;;;;5006783;28;20046;-86
2023/02/26 09:04:05;;;;;;;2.30;1.85;;;;;;;;;;4984409;28;20057;-87
2023/02/26 09:06:35;;;;;;;2.88;1.85;;;;;;;;;;4988226;28;20285;-86
2023/02/26 09:09:02;;;;;;;5.57;1.75;;;;;;;;;;4971487;28;20050;-87
2023/02/26 09:11:35;;;;;;;4.15;2.00;;;;;;;;;;4992160;28;20397;-87
2023/02/26 09:14:03;;;;;;;5.03;1.90;;;;;;;;;;5002421;28;20056;-87
2023/02/26 09:16:35;;;;;;;2.58;2.38;;;;;;;;;;4989430;28;20045;-87
2023/02/26 09:19:03;;;;;;;4.75;2.05;;;;;;;;;;4974510;28;20404;-87
2023/02/26 10:19:55;;;;;;;;;;;;;;;;;;;;;
2023/02/26 10:23:21;;;;;;;2.03;1.65;;;;;;;;;;4819480;29;20057;-87
2023/02/26 10:25:52;;;;;;;1.85;1.58;;;;;;;;;;4907528;29;20074;-88
2023/02/26 10:28:43;;;;;;;2.38;1.30;;;;;;;;;;4989052;28;20057;-87
2023/02/26 10:31:18;;;;;;;1.65;1.10;;;;;;;;;;4983278;28;20073;-87
2023/02/26 10:33:50;;;;;;;0.90;0.80;;;;;;;;;;4972167;28;20054;-87
2023/02/26 10:36:22;;;;;;;1.60;1.50;;;;;;;;;;4990081;28;20495;-87
2023/02/26 10:39:15;;;;;;;1.55;1.45;;;;;;;;;;5005886;28;20050;-87
2023/02/26 10:47:07;;;;;;;1.58;1.20;;;;;;;;;;4790822;29;20053;-87
2023/02/26 10:50:16;;;;;;;;;;;;;;;;;;;;;
2023/02/26 11:16:29;;;;;;;1.27;1.10;;;;;;;;;;5002380;28;20046;-91
2023/02/26 11:36:59;;;;;;;2.42;1.20;;;;;;;;;;5076049;22;20422;-88
2023/02/26 11:39:28;;;;;;;2.10;1.17;;;;;;;;;;5008065;28;20535;-87
2023/02/26 11:41:57;;;;;;;1.23;0.85;;;;;;;;;;4987476;28;20515;-87
2023/02/26 11:44:34;;;;;;;2.80;0.80;;;;;;;;;;4970577;28;20050;-87
2023/02/26 11:47:05;;;;;;;0.95;0.75;;;;;;;;;;4988083;28;20050;-87
2023/02/26 11:49:32;;;;;;;1.83;0.80;;;;;;;;;;4990640;28;20050;-87
2023/02/26 11:52:17;;;;;;;1.33;1.23;;;;;;;;;;4966338;28;20046;-87
2023/02/26 11:54:46;;;;;;;3.13;1.20;;;;;;;;;;4957318;28;20059;-87
2023/02/26 11:57:17;;;;;;;1.33;1.20;;;;;;;;;;4981360;28;20051;-87
2023/02/26 11:59:48;;;;;;;1.23;0.77;;;;;;;;;;4970378;28;20488;-87
2023/02/26 12:02:18;;;;;;;1.10;1.08;;;;;;;;;;4969496;28;20042;-87
2023/02/26 12:04:52;;;;;;;1.15;0.98;;;;;;;;;;4971705;28;20058;-87
2023/02/26 12:07:21;;;;;;;1.27;0.70;;;;;;;;;;4970631;28;20053;-87
2023/02/26 12:09:50;;;;;;;1.05;0.77;;;;;;;;;;4971103;28;20057;-87
2023/02/26 12:12:37;;;;;;;1.50;1.10;;;;;;;;;;4977481;28;20050;-88
2023/02/26 12:15:14;;;;;;;;;;;;;;;;;;4989134;28;20053;-87
2023/02/26 12:17:54;;;;;;;1.08;0.80;;;;;;;;;;4974673;28;19929;-87
2023/02/26 12:20:27;;;;;;;1.30;0.85;;;;;;;;;;4993071;28;20057;-87
2023/02/26 12:23:08;;;;;;;1.13;0.80;;;;;;;;;;4972321;28;20051;-87
2023/02/26 12:25:50;;;;;;;1.92;0.75;;;;;;;;;;4971739;28;20411;-86
2023/02/26 12:28:34;;;;;;;0.70;0.68;;;;;;;;;;4986511;28;20042;-87
2023/02/26 12:31:16;;;;;;;0.98;0.80;;;;;;;;;;4986232;28;20058;-87
2023/02/26 12:33:51;;;;;;;2.08;1.50;;;;;;;;;;4986257;28;20515;-87
2023/02/26 12:36:26;;;;;;;0.65;0.60;;;;;;;;;;4972336;28;20407;-87
2023/02/26 12:39:03;;;;;;;1.33;0.50;;;;;;;;;;4986487;28;20051;-88
2023/02/26 12:41:48;;;;;;;1.55;0.80;;;;;;;;;;4990426;28;20057;-86
2023/02/26 12:44:36;;;;;;;0.63;0.60;;;;;;;;;;4988925;28;20081;-87
2023/02/26 12:47:18;;;;;;;1.05;0.60;;;;;;;;;;4987420;28;20062;-87
2023/02/26 12:50:06;;;;;;;2.45;0.70;;;;;;;;;;4967987;28;20408;-87
2023/02/26 12:52:49;;;;;;;1.33;0.80;;;;;;;;;;4983862;28;20047;-87
2023/02/26 12:55:28;;;;;;;0.60;0.40;;;;;;;;;;4973674;28;20053;-87
2023/02/26 12:58:29;;;;;;;1.70;0.90;;;;;;;;;;4990448;28;20069;-87
2023/02/26 13:01:11;;;;;;;0.80;0.80;;;;;;;;;;4981988;28;20519;-87
2023/02/26 13:04:00;;;;;;;1.20;0.65;;;;;;;;;;4988672;28;20054;-87
2023/02/26 13:06:51;;;;;;;0.70;0.70;;;;;;;;;;4971663;28;20062;-86
2023/02/26 13:09:30;;;;;;;0.70;0.52;;;;;;;;;;4985467;28;20057;-87
2023/02/26 13:12:08;;;;;;;0.60;0.60;;;;;;;;;;4968231;28;20420;-87
2023/02/26 13:14:45;;;;;;;0.98;0.93;;;;;;;;;;4990111;28;20062;-87
2023/02/26 13:17:20;;;;;;;1.10;0.50;;;;;;;;;;4984655;28;20058;-87
2023/02/26 13:19:52;;;;;;;0.55;0.50;;;;;;;;;;4976839;28;20050;-88
2023/02/26 13:22:25;;;;;;;0.60;0.45;;;;;;;;;;4991295;28;20058;-87
2023/02/26 13:24:57;;;;;;;0.60;0.60;;;;;;;;;;4993742;28;20046;-87
2023/02/26 13:27:31;;;;;;;0.75;0.70;;;;;;;;;;4983845;28;20050;-87
2023/02/26 13:30:10;;;;;;;0.43;0.43;;;;;;;;;;4976068;28;20052;-88
2023/02/26 13:32:40;;;;;;;0.80;0.80;;;;;;;;;;4986248;28;20080;-88
2023/02/26 13:35:19;;;;;;;1.33;0.77;;;;;;;;;;4973078;28;20042;-87
2023/02/26 13:37:51;;;;;;;0.77;0.50;;;;;;;;;;4954808;28;20046;-87
2023/02/26 13:40:34;;;;;;;0.82;0.70;;;;;;;;;;4984821;28;20432;-87
2023/02/26 13:43:10;;;;;;;0.50;0.40;;;;;;;;;;4968441;28;20051;-87
2023/02/26 13:45:48;;;;;;;0.80;0.60;;;;;;;;;;4988649;28;20053;-89
2023/02/26 13:48:23;;;;;;;1.17;0.82;;;;;;;;;;4980074;28;20062;-88
2023/02/26 13:50:59;;;;;;;1.05;0.63;;;;;;;;;;4978265;28;20046;-87
2023/02/26 14:13:35;;;;;;;1.13;1.02;;;;;;;;;;5129977;22;20068;-89
2023/02/26 14:16:10;;;;;;;1.23;1.08;;;;;;;;;;4964857;28;20073;-89
2023/02/26 14:18:42;;;;;;;1.98;1.23;;;;;;;;;;4984099;28;20058;-89
2023/02/26 14:21:34;;;;;;;0.80;0.70;;;;;;;;;;4993715;28;20069;-89
2023/02/26 14:24:05;;;;;;;0.82;0.70;;;;;;;;;;4985028;28;20077;-89
2023/02/26 14:26:34;;;;;;;0.50;0.50;;;;;;;;;;4985640;28;20053;-89
2023/02/26 14:29:15;;;;;;;1.42;0.70;;;;;;;;;;4984095;28;20046;-89
2023/02/26 14:31:54;;;;;;;1.00;0.63;;;;;;;;;;4944370;28;20047;-89
2023/02/26 14:34:23;;;;;;;0.75;0.70;;;;;;;;;;4967250;28;20042;-89
2023/02/26 17:59:51;;;;;;;1.25;0.95;;;;;;;;;;6202390;23;20473;-87
2023/02/26 18:24:01;;;;;;;4.32;2.78;;;;;;;;;;5889738;24;20040;-87
2023/02/26 18:26:55;;;;;;;2.10;1.17;;;;;;;;;;5944947;24;20023;-87
2023/02/26 18:29:23;;;;;;;1.42;1.20;;;;;;;;;;5995551;23;20356;-87
2023/02/26 18:31:50;;;;;;;1.33;1.23;;;;;;;;;;6187860;23;20017;-87
2023/02/26 18:34:18;;;;;;;1.52;0.98;;;;;;;;;;6188038;23;20327;-87
2023/02/26 18:36:45;;;;;;;1.92;1.73;;;;;;;;;;6188784;23;20021;-86
2023/02/26 18:39:15;;;;;;;1.23;0.75;;;;;;;;;;6163414;23;20017;-86
2023/02/26 18:41:42;;;;;;;2.47;1.80;;;;;;;;;;6162790;23;20027;-87
2023/02/26 18:44:10;;;;;;;0.95;0.60;;;;;;;;;;6163822;23;20361;-87
2023/02/26 18:46:39;;;;;;;2.72;1.20;;;;;;;;;;6190946;23;20460;-87
2023/02/26 18:49:06;;;;;;;7.00;1.88;;;;;;;;;;6168248;23;20052;-87
2023/02/26 18:51:34;;;;;;;1.05;0.70;;;;;;;;;;6192187;23;20001;-87
2023/02/26 18:54:01;;;;;;;1.10;1.00;;;;;;;;;;6193255;23;20069;-87
2023/02/26 18:56:30;;;;;;;1.55;1.42;;;;;;;;;;6210369;23;20013;-87
2023/02/26 18:58:57;;;;;;;2.45;0.80;;;;;;;;;;6153830;23;20035;-87
2023/02/26 19:01:24;;;;;;;0.80;0.80;;;;;;;;;;6204027;23;19997;-87
2023/02/26 19:32:43;;;;;;;1.92;1.38;;;;;;;;;;5943967;23;20372;-87
2023/02/26 19:35:10;;;;;;;1.85;1.20;;;;;;;;;;6107499;23;20017;-88
2023/02/26 19:37:38;;;;;;;2.38;0.70;;;;;;;;;;6182393;23;20009;-85
2023/02/26 19:40:08;;;;;;;0.68;0.68;;;;;;;;;;6190095;23;20020;-85
2023/02/26 19:42:39;;;;;;;1.33;1.00;;;;;;;;;;6168365;23;20020;-85
2023/02/26 19:45:12;;;;;;;1.13;1.00;;;;;;;;;;6163637;23;20027;-86
2023/02/26 19:47:43;;;;;;;2.15;1.42;;;;;;;;;;6196878;23;20069;-86
2023/02/26 19:50:13;;;;;;;2.83;0.70;;;;;;;;;;6203373;23;20017;-86
2023/02/26 19:52:43;;;;;;;1.15;1.05;;;;;;;;;;6207687;23;20017;-86
2023/02/26 19:55:13;;;;;;;0.80;0.65;;;;;;;;;;6186586;23;20060;-86
2023/02/26 19:57:42;;;;;;;1.92;0.90;;;;;;;;;;6203887;23;20057;-86
2023/02/26 20:00:13;;;;;;;0.60;0.60;;;;;;;;;;6169691;23;20331;-86
2023/02/26 20:02:44;;;;;;;2.30;0.90;;;;;;;;;;6153052;23;20048;-87
2023/02/26 20:05:15;;;;;;;3.20;0.90;;;;;;;;;;6163391;23;20020;-86
2023/02/26 20:07:46;;;;;;;1.75;1.00;;;;;;;;;;6161395;23;20509;-86
2023/02/26 20:10:15;;;;;;;2.78;1.00;;;;;;;;;;6150359;23;20346;-86
2023/02/26 20:12:43;;;;;;;1.75;1.27;;;;;;;;;;6123665;23;20017;-86
2023/02/26 20:15:11;;;;;;;0.77;0.68;;;;;;;;;;6126589;23;20017;-86
2023/02/26 20:17:38;;;;;;;0.80;0.80;;;;;;;;;;6150625;23;20021;-86
2023/02/26 20:20:08;;;;;;;1.02;0.93;;;;;;;;;;6126051;23;20354;-86
2023/02/26 20:22:36;;;;;;;1.02;0.73;;;;;;;;;;6151450;23;20013;-86
2023/02/26 20:25:08;;;;;;;1.58;1.30;;;;;;;;;;6160933;23;20048;-87
2023/02/26 20:27:38;;;;;;;2.95;1.90;;;;;;;;;;6151823;23;20018;-86
2023/02/26 20:30:07;;;;;;;2.58;1.70;;;;;;;;;;6149592;23;20025;-86
2023/02/26 20:32:35;;;;;;;3.22;2.42;;;;;;;;;;6123624;23;20449;-86
2023/02/26 20:35:02;;;;;;;1.23;1.02;;;;;;;;;;6124204;23;20014;-87
2023/02/26 20:37:31;;;;;;;1.50;1.35;;;;;;;;;;6123855;23;20477;-87
2023/02/26 20:39:58;;;;;;;2.20;1.90;;;;;;;;;;6133881;23;20017;-87
2023/02/26 20:42:26;;;;;;;1.13;1.02;;;;;;;;;;6148868;23;20358;-87
2023/02/26 20:44:55;;;;;;;1.63;1.10;;;;;;;;;;6160773;23;20017;-86
2023/02/26 20:47:23;;;;;;;2.13;1.23;;;;;;;;;;6125586;23;20339;-86
2023/02/26 20:49:50;;;;;;;2.35;1.08;;;;;;;;;;6125264;23;20018;-86
2023/02/26 20:52:17;;;;;;;1.55;1.23;;;;;;;;;;6123431;23;20548;-86
2023/02/26 20:54:48;;;;;;;1.80;1.33;;;;;;;;;;6101569;23;20021;-86
2023/02/26 20:57:17;;;;;;;2.45;1.55;;;;;;;;;;6140525;23;20021;-86
2023/02/26 20:59:45;;;;;;;3.00;1.50;;;;;;;;;;6154408;23;20013;-87
2023/02/26 21:02:19;;;;;;;1.85;1.50;;;;;;;;;;6153656;23;20013;-86
2023/02/26 21:04:51;;;;;;;1.58;1.27;;;;;;;;;;6182175;23;20013;-86
2023/02/26 21:07:21;;;;;;;1.20;0.90;;;;;;;;;;6179329;23;20021;-86
2023/02/26 21:09:54;;;;;;;1.58;1.40;;;;;;;;;;6188187;23;20016;-86
2023/02/26 21:12:21;;;;;;;3.45;1.00;;;;;;;;;;6163267;23;20013;-86
2023/02/26 21:14:50;;;;;;;6.03;1.17;;;;;;;;;;6179876;23;20009;-85
2023/02/26 21:17:17;;;;;;;1.80;1.02;;;;;;;;;;6181091;23;20013;-87
2023/02/26 21:19:44;;;;;;;2.53;1.40;;;;;;;;;;6185696;23;20013;-86
2023/02/26 21:22:14;;;;;;;1.45;1.00;;;;;;;;;;6178604;23;20487;-86
2023/02/26 21:24:41;;;;;;;1.23;1.10;;;;;;;;;;6154030;23;20021;-86
2023/02/26 21:27:11;;;;;;;2.75;1.52;;;;;;;;;;6178987;23;20025;-86
2023/02/26 21:29:43;;;;;;;3.67;1.77;;;;;;;;;;6179543;23;20032;-87
2023/02/26 21:32:10;;;;;;;2.15;1.65;;;;;;;;;;6180320;23;20013;-87